Time;durP1;ratioP1;P1;durP2;ratioP2;P2;SDS_P1;SDS_P2;PMS_P1;PMS_P2;Temp;Humidity;BMP_temperature;BMP_pressure;BME280_temperature;BME280_humidity;BME280_pressure;Samples;Min_cycle;Max_cycle;Signal;HPM_P1;HPM_P2
2024/04/07 00:00:48;;;;;;;7.10;2.58;;;20.20;77.00;;;;;;5014323;28;20038;-79
2024/04/07 00:03:14;;;;;;;;;;;20.20;77.00;;;;;;5025149;28;20030;-79
2024/04/07 00:05:40;;;;;;;5.70;2.25;;;20.20;77.00;;;;;;5031049;28;20023;-80
2024/04/07 00:08:05;;;;;;;3.97;2.10;;;20.20;77.00;;;;;;5032358;28;20037;-78
2024/04/07 00:10:31;;;;;;;3.70;1.90;;;20.20;77.00;;;;;;5030641;28;20530;-79
2024/04/07 00:12:57;;;;;;;4.80;2.30;;;20.20;77.00;;;;;;5030666;28;20271;-79
2024/04/07 00:15:22;;;;;;;5.30;2.10;;;20.20;77.00;;;;;;5030777;28;20418;-78
2024/04/07 00:17:49;;;;;;;8.77;2.67;;;20.20;77.00;;;;;;5030586;28;20124;-79
2024/04/07 00:20:15;;;;;;;4.07;2.20;;;20.20;77.00;;;;;;5030308;28;20390;-79
2024/04/07 00:22:40;;;;;;;6.00;1.90;;;20.20;77.10;;;;;;5029191;28;20040;-79
2024/04/07 00:25:06;;;;;;;3.30;1.70;;;20.20;77.00;;;;;;5021093;28;20021;-80
2024/04/07 00:27:32;;;;;;;3.17;1.83;;;20.20;77.00;;;;;;5031289;28;20025;-79
2024/04/07 00:29:58;;;;;;;3.70;1.80;;;20.10;77.00;;;;;;5030488;28;20052;-79
2024/04/07 00:32:23;;;;;;;5.63;1.93;;;20.20;77.10;;;;;;5041215;28;20397;-79
2024/04/07 00:34:50;;;;;;;5.20;2.13;;;20.10;77.10;;;;;;5022122;28;20068;-79
2024/04/07 00:37:19;;;;;;;5.18;2.42;;;20.10;77.10;;;;;;5030277;28;20040;-79
2024/04/07 00:39:45;;;;;;;5.90;2.28;;;20.10;77.10;;;;;;5029197;28;20584;-79
2024/04/07 00:42:11;;;;;;;3.03;1.52;;;20.10;77.20;;;;;;5019944;28;20117;-79
2024/04/07 00:44:37;;;;;;;4.87;1.80;;;20.10;77.20;;;;;;5026685;28;20137;-79
2024/04/07 00:47:06;;;;;;;4.00;1.80;;;20.10;77.10;;;;;;5029871;28;20252;-79
2024/04/07 00:49:34;;;;;;;5.18;2.50;;;20.10;77.20;;;;;;5022971;28;20137;-79
2024/04/07 00:52:00;;;;;;;4.47;1.70;;;20.10;77.20;;;;;;5027601;28;20030;-80
2024/04/07 00:54:26;;;;;;;4.85;1.70;;;20.10;77.20;;;;;;5028261;28;20029;-79
2024/04/07 00:56:52;;;;;;;2.92;1.75;;;20.10;77.20;;;;;;5029830;28;20033;-80
2024/04/07 00:59:18;;;;;;;7.53;2.10;;;20.10;77.20;;;;;;5028434;28;20029;-81
2024/04/07 01:01:43;;;;;;;3.57;2.33;;;20.00;77.20;;;;;;5028501;28;20033;-79
2024/04/07 01:04:09;;;;;;;5.00;2.07;;;20.00;77.20;;;;;;5029298;28;20262;-79
2024/04/07 01:06:35;;;;;;;5.50;2.00;;;20.00;77.30;;;;;;5029897;28;20032;-79
2024/04/07 01:09:01;;;;;;;2.93;1.60;;;20.00;77.30;;;;;;5018376;28;20040;-79
2024/04/07 01:11:27;;;;;;;3.97;1.83;;;20.00;77.30;;;;;;5030313;28;20132;-79
2024/04/07 01:13:53;;;;;;;;;;;20.00;77.40;;;;;;5028526;28;20025;-80
2024/04/07 01:16:20;;;;;;;7.20;2.47;;;20.00;77.40;;;;;;5030867;28;19995;-79
2024/04/07 01:18:45;;;;;;;3.15;1.63;;;20.00;77.30;;;;;;5023056;28;20275;-80
2024/04/07 01:21:11;;;;;;;2.50;1.33;;;20.00;77.20;;;;;;5013010;28;20042;-79
2024/04/07 01:23:37;;;;;;;3.90;1.80;;;20.00;77.30;;;;;;5029636;28;20059;-79
2024/04/07 01:26:03;;;;;;;3.73;1.60;;;19.90;77.20;;;;;;5031177;28;20028;-79
2024/04/07 01:28:28;;;;;;;2.47;1.23;;;19.90;77.20;;;;;;5029509;28;20036;-79
2024/04/07 01:30:54;;;;;;;2.40;1.37;;;19.90;77.20;;;;;;5020821;28;20132;-80
2024/04/07 01:33:20;;;;;;;3.20;1.73;;;19.90;77.20;;;;;;5026583;28;20021;-78
2024/04/07 01:35:46;;;;;;;1.95;1.30;;;19.90;77.20;;;;;;5020863;28;20025;-79
2024/04/07 01:38:12;;;;;;;3.22;1.40;;;19.90;77.20;;;;;;5029513;28;20133;-79
2024/04/07 01:40:38;;;;;;;3.78;1.83;;;19.90;77.10;;;;;;5027400;28;20455;-79
2024/04/07 01:43:04;;;;;;;3.22;1.50;;;19.90;77.20;;;;;;5018969;28;20533;-79
2024/04/07 01:45:30;;;;;;;3.40;1.47;;;19.90;77.20;;;;;;5029256;28;20065;-79
2024/04/07 01:47:55;;;;;;;2.27;1.70;;;19.80;77.30;;;;;;5029260;28;20056;-79
2024/04/07 01:50:21;;;;;;;5.97;1.33;;;19.90;77.20;;;;;;5028369;28;20116;-80
2024/04/07 01:52:47;;;;;;;2.70;1.33;;;19.90;77.20;;;;;;5027274;28;20040;-80
2024/04/07 01:55:13;;;;;;;3.10;1.42;;;19.80;77.30;;;;;;5018609;28;20037;-79
2024/04/07 01:57:39;;;;;;;3.73;1.57;;;19.80;77.30;;;;;;5025953;28;20021;-79
2024/04/07 02:00:07;;;;;;;5.10;1.43;;;19.80;77.30;;;;;;5030084;28;20022;-79
2024/04/07 02:02:36;;;;;;;3.65;1.30;;;19.80;77.30;;;;;;5029017;28;20033;-79
2024/04/07 02:05:05;;;;;;;2.95;1.42;;;19.80;77.30;;;;;;5029072;28;20408;-79
2024/04/07 02:07:32;;;;;;;3.70;1.77;;;19.80;77.30;;;;;;5025310;28;20034;-80
2024/04/07 02:09:58;;;;;;;4.07;1.75;;;19.80;77.30;;;;;;5028945;28;20491;-79
2024/04/07 02:12:24;;;;;;;2.08;1.33;;;19.80;77.30;;;;;;5029389;28;20028;-79
2024/04/07 02:14:50;;;;;;;4.50;1.70;;;19.80;77.30;;;;;;5028473;28;20688;-79
2024/04/07 02:17:15;;;;;;;2.07;1.40;;;19.80;77.30;;;;;;5029188;28;20104;-79
2024/04/07 02:19:41;;;;;;;3.57;1.63;;;19.70;77.40;;;;;;5029793;28;20045;-80
2024/04/07 02:22:07;;;;;;;2.70;1.60;;;19.70;77.40;;;;;;5030205;28;20076;-80
2024/04/07 02:24:34;;;;;;;2.20;1.38;;;19.70;77.30;;;;;;5030269;28;20021;-79
2024/04/07 02:27:00;;;;;;;2.97;1.45;;;19.70;77.40;;;;;;5031882;28;20025;-79
2024/04/07 02:29:26;;;;;;;2.70;1.27;;;19.70;77.40;;;;;;5031994;28;20108;-79
2024/04/07 02:31:51;;;;;;;2.13;1.30;;;19.70;77.40;;;;;;5032664;28;20034;-79
2024/04/07 02:34:17;;;;;;;5.47;1.50;;;19.70;77.40;;;;;;5033275;28;20079;-79
2024/04/07 02:36:43;;;;;;;2.90;1.27;;;19.70;77.40;;;;;;5026185;28;20021;-79
2024/04/07 02:39:09;;;;;;;2.60;1.37;;;19.70;77.30;;;;;;5029021;28;20455;-79
2024/04/07 02:41:36;;;;;;;3.70;1.30;;;19.70;77.40;;;;;;5027307;28;20493;-79
2024/04/07 02:44:03;;;;;;;1.52;1.17;;;19.60;77.30;;;;;;5023604;28;20026;-79
2024/04/07 02:49:13;;;;;;;3.08;1.05;;;19.60;77.30;;;;;;5019900;28;20485;-79
2024/04/07 02:51:39;;;;;;;2.23;1.30;;;19.60;77.30;;;;;;5033691;28;20029;-79
2024/04/07 02:54:05;;;;;;;4.23;1.70;;;19.60;77.20;;;;;;5031357;28;20356;-79
2024/04/07 02:56:30;;;;;;;4.40;1.27;;;19.60;77.40;;;;;;5029909;28;20116;-79
2024/04/07 02:58:56;;;;;;;3.27;1.50;;;19.60;77.30;;;;;;5032245;28;20066;-80
2024/04/07 03:01:22;;;;;;;5.17;1.20;;;19.60;77.30;;;;;;5032350;28;20124;-80
2024/04/07 03:03:48;;;;;;;2.53;1.30;;;19.50;77.30;;;;;;5033793;28;20029;-79
2024/04/07 03:06:14;;;;;;;3.53;1.25;;;19.60;77.30;;;;;;5032507;28;20336;-80
2024/04/07 03:08:40;;;;;;;3.60;1.43;;;19.60;77.40;;;;;;5023120;28;20045;-79
2024/04/07 03:11:07;;;;;;;3.47;1.43;;;19.50;77.30;;;;;;5031312;28;20013;-79
2024/04/07 03:13:33;;;;;;;1.98;0.93;;;19.50;77.30;;;;;;5032272;28;20025;-79
2024/04/07 03:15:59;;;;;;;3.00;1.30;;;19.50;77.50;;;;;;5033362;28;20025;-79
2024/04/07 03:18:25;;;;;;;2.43;1.20;;;19.50;77.40;;;;;;5032822;28;20053;-79
2024/04/07 03:20:52;;;;;;;2.97;1.30;;;19.50;77.40;;;;;;5032270;28;20091;-79
2024/04/07 03:23:18;;;;;;;1.30;1.05;;;19.50;77.40;;;;;;5032097;28;20056;-80
2024/04/07 03:25:43;;;;;;;3.20;1.17;;;19.50;77.40;;;;;;5032104;28;20045;-80
2024/04/07 03:28:09;;;;;;;1.92;1.23;;;19.50;77.40;;;;;;5031275;28;20029;-80
2024/04/07 03:30:36;;;;;;;2.10;1.03;;;19.50;77.40;;;;;;5039309;28;20042;-79
2024/04/07 03:33:02;;;;;;;1.67;1.20;;;19.50;77.40;;;;;;5026342;28;20030;-80
2024/04/07 03:35:29;;;;;;;3.85;1.25;;;19.50;77.40;;;;;;5030193;28;20036;-80
2024/04/07 03:37:54;;;;;;;;;;;19.50;77.40;;;;;;5029515;28;20021;-79
2024/04/07 03:40:20;;;;;;;2.78;1.10;;;19.50;77.40;;;;;;5018997;28;19909;-80
2024/04/07 03:42:46;;;;;;;1.17;0.80;;;19.50;77.40;;;;;;5026392;28;20064;-78
2024/04/07 03:45:12;;;;;;;2.13;1.10;;;19.50;77.40;;;;;;5031030;28;20112;-79
2024/04/07 03:47:38;;;;;;;5.10;1.27;;;19.40;77.40;;;;;;5032604;28;20100;-79
2024/04/07 03:50:05;;;;;;;2.22;1.02;;;19.40;77.50;;;;;;5024364;28;20036;-79
2024/04/07 03:52:31;;;;;;;1.90;1.00;;;19.40;77.40;;;;;;5018235;28;20152;-79
2024/04/07 03:54:57;;;;;;;1.45;0.95;;;19.40;77.40;;;;;;5028132;28;20024;-79
2024/04/07 03:57:22;;;;;;;2.13;1.00;;;19.40;77.40;;;;;;5031068;28;20021;-79
2024/04/07 03:59:48;;;;;;;1.50;0.87;;;19.40;77.50;;;;;;5025380;28;20073;-79
2024/04/07 04:02:21;;;;;;;1.67;0.77;;;19.40;77.50;;;;;;5024084;28;20018;-79
2024/04/07 04:04:58;;;;;;;3.63;1.10;;;19.40;77.40;;;;;;5019457;28;20026;-79
2024/04/07 04:07:28;;;;;;;2.10;0.82;;;19.40;77.40;;;;;;5022570;28;20463;-79
2024/04/07 04:09:56;;;;;;;2.17;0.88;;;19.40;77.40;;;;;;5030448;28;20118;-80
2024/04/07 04:12:26;;;;;;;1.42;1.00;;;19.40;77.40;;;;;;5015476;28;20046;-80
2024/04/07 04:14:53;;;;;;;1.25;0.70;;;19.40;77.50;;;;;;5027432;28;20474;-78
2024/04/07 04:17:19;;;;;;;1.73;1.08;;;19.30;77.40;;;;;;5027080;28;20026;-79
2024/04/07 04:19:45;;;;;;;1.48;1.02;;;19.30;77.40;;;;;;5025566;28;20100;-79
2024/04/07 04:22:11;;;;;;;2.37;0.80;;;19.30;77.50;;;;;;5022149;28;20033;-79
2024/04/07 04:24:37;;;;;;;1.92;0.90;;;19.30;77.40;;;;;;5031928;28;20017;-79
2024/04/07 04:27:03;;;;;;;2.65;0.88;;;19.30;77.50;;;;;;5024542;28;20030;-79
2024/04/07 04:29:31;;;;;;;3.47;0.80;;;19.30;77.40;;;;;;5020447;28;20038;-79
2024/04/07 04:31:57;;;;;;;1.33;0.90;;;19.30;77.40;;;;;;5017971;28;20041;-79
2024/04/07 04:34:23;;;;;;;3.43;1.00;;;19.30;77.40;;;;;;5026980;28;20643;-79
2024/04/07 04:36:50;;;;;;;2.80;0.95;;;19.30;77.50;;;;;;5027113;28;20049;-79
2024/04/07 04:39:16;;;;;;;1.77;0.77;;;19.30;77.40;;;;;;5030225;28;20068;-79
2024/04/07 04:41:45;;;;;;;3.20;0.80;;;19.30;77.40;;;;;;5029488;28;20018;-79
2024/04/07 04:44:12;;;;;;;0.95;0.75;;;19.30;77.50;;;;;;5021585;28;20735;-79
2024/04/07 04:46:42;;;;;;;1.13;0.82;;;19.30;77.50;;;;;;5027530;28;20029;-79
2024/04/07 04:49:09;;;;;;;0.93;0.63;;;19.30;77.50;;;;;;5024347;28;20040;-79
2024/04/07 04:51:35;;;;;;;2.00;1.00;;;19.20;77.50;;;;;;5027151;28;20044;-79
2024/04/07 04:54:01;;;;;;;1.50;0.80;;;19.30;77.50;;;;;;5029333;28;20443;-79
2024/04/07 04:56:26;;;;;;;2.05;0.68;;;19.20;77.50;;;;;;5030716;28;20029;-79
2024/04/07 04:58:53;;;;;;;2.30;0.70;;;19.30;77.50;;;;;;5028810;28;20029;-78
2024/04/07 05:01:19;;;;;;;1.02;0.70;;;19.20;77.50;;;;;;5026456;28;20021;-80
2024/04/07 05:03:45;;;;;;;1.45;0.73;;;19.20;77.50;;;;;;5015519;28;20075;-79
2024/04/07 05:06:16;;;;;;;1.47;0.80;;;19.20;77.40;;;;;;5017156;28;20112;-79
2024/04/07 05:08:42;;;;;;;2.00;1.10;;;19.20;77.50;;;;;;5017064;28;20045;-79
2024/04/07 05:11:08;;;;;;;1.08;0.70;;;19.20;77.40;;;;;;5024537;28;20052;-79
2024/04/07 05:13:34;;;;;;;1.75;0.70;;;19.20;77.50;;;;;;5030976;28;20033;-79
2024/04/07 05:16:00;;;;;;;1.75;0.60;;;19.20;77.30;;;;;;5029643;28;20129;-79
2024/04/07 05:18:26;;;;;;;2.60;0.82;;;19.20;77.50;;;;;;5028920;28;20033;-79
2024/04/07 05:20:53;;;;;;;2.35;0.98;;;19.20;77.30;;;;;;5015018;28;20077;-79
2024/04/07 05:23:19;;;;;;;1.48;0.70;;;19.20;77.30;;;;;;5026306;28;20108;-79
2024/04/07 05:25:45;;;;;;;3.63;0.87;;;19.20;77.30;;;;;;5022305;28;20124;-80
2024/04/07 05:28:11;;;;;;;1.10;0.50;;;19.20;77.40;;;;;;5029172;28;20538;-79
2024/04/07 05:30:37;;;;;;;2.00;0.70;;;19.20;77.40;;;;;;5029459;28;20041;-80
2024/04/07 05:33:03;;;;;;;1.75;1.00;;;19.20;77.30;;;;;;5017030;28;20071;-79
2024/04/07 05:35:30;;;;;;;2.45;0.70;;;19.20;77.20;;;;;;5029431;28;20038;-78
2024/04/07 05:37:56;;;;;;;1.55;1.08;;;19.20;77.20;;;;;;5025679;28;20033;-79
2024/04/07 05:40:21;;;;;;;1.17;0.60;;;19.20;77.20;;;;;;5021077;28;20136;-79
2024/04/07 05:42:47;;;;;;;0.60;0.50;;;19.20;77.20;;;;;;5011446;28;20110;-80
2024/04/07 05:45:15;;;;;;;2.90;0.67;;;19.20;77.20;;;;;;5027325;28;20103;-79
2024/04/07 05:47:41;;;;;;;2.40;1.08;;;19.20;77.10;;;;;;5029015;28;20467;-79
2024/04/07 05:50:06;;;;;;;0.67;0.60;;;19.20;77.10;;;;;;5027693;28;20116;-79
2024/04/07 05:52:33;;;;;;;0.83;0.67;;;19.20;77.10;;;;;;5029728;28;20255;-80
2024/04/07 05:54:58;;;;;;;2.38;1.00;;;19.20;77.10;;;;;;5029081;28;20456;-79
2024/04/07 05:57:24;;;;;;;1.77;1.10;;;19.20;77.00;;;;;;5028614;28;20037;-79
2024/04/07 05:59:51;;;;;;;2.23;0.97;;;19.20;77.00;;;;;;5020827;28;20421;-79
2024/04/07 06:02:16;;;;;;;2.03;0.80;;;19.20;76.90;;;;;;5025642;28;20046;-80
2024/04/07 06:04:43;;;;;;;1.80;0.60;;;19.30;76.80;;;;;;5028488;28;20140;-79
2024/04/07 06:07:09;;;;;;;1.75;0.70;;;19.30;76.60;;;;;;5024159;28;20018;-79
2024/04/07 06:09:35;;;;;;;1.47;0.77;;;19.30;76.50;;;;;;5028216;28;20425;-79
2024/04/07 06:12:01;;;;;;;1.17;0.63;;;19.30;76.50;;;;;;5028104;28;20060;-79
2024/04/07 06:14:28;;;;;;;;;;;19.30;76.60;;;;;;5030093;28;20052;-79
2024/04/07 06:16:54;;;;;;;1.02;0.60;;;19.50;76.10;;;;;;5027581;28;20586;-79
2024/04/07 06:19:20;;;;;;;0.83;0.43;;;19.40;76.00;;;;;;5028436;28;20042;-79
2024/04/07 06:21:45;;;;;;;1.53;0.63;;;19.50;76.10;;;;;;5020310;28;20029;-79
2024/04/07 06:24:11;;;;;;;1.03;0.60;;;19.40;76.10;;;;;;5024117;28;20116;-80
2024/04/07 06:26:37;;;;;;;1.27;0.73;;;19.50;76.00;;;;;;5018953;28;20044;-79
2024/04/07 06:29:02;;;;;;;3.93;1.00;;;19.60;75.60;;;;;;5028653;28;20030;-79
2024/04/07 06:31:28;;;;;;;2.60;0.70;;;19.60;75.40;;;;;;5029945;28;20049;-80
2024/04/07 06:33:54;;;;;;;0.70;0.50;;;19.60;75.50;;;;;;5027182;28;20018;-80
2024/04/07 06:36:19;;;;;;;1.67;0.70;;;19.60;75.50;;;;;;5027929;28;20043;-79
2024/04/07 06:38:45;;;;;;;1.30;0.53;;;19.70;75.30;;;;;;5027969;28;20029;-80
2024/04/07 06:41:11;;;;;;;0.73;0.70;;;19.70;75.00;;;;;;5028349;28;20459;-79
2024/04/07 06:43:38;;;;;;;2.00;0.40;;;19.80;74.70;;;;;;5023362;28;20040;-80
2024/04/07 06:46:04;;;;;;;2.58;0.60;;;20.10;73.80;;;;;;5021832;28;20018;-79
2024/04/07 06:48:30;;;;;;;1.03;0.50;;;20.50;72.20;;;;;;5028619;28;20032;-78
2024/04/07 06:50:55;;;;;;;2.93;0.80;;;20.70;71.60;;;;;;5022516;28;20258;-79
2024/04/07 06:53:22;;;;;;;1.03;0.43;;;20.70;71.70;;;;;;5027145;28;20137;-79
2024/04/07 06:55:47;;;;;;;1.00;0.60;;;20.80;71.20;;;;;;5028477;28;20048;-78
2024/04/07 06:58:13;;;;;;;1.80;0.50;;;21.20;70.40;;;;;;5029854;28;20524;-80
2024/04/07 07:00:40;;;;;;;4.07;1.38;;;21.70;68.70;;;;;;5028490;28;20021;-79
2024/04/07 07:03:06;;;;;;;0.93;0.60;;;21.90;67.70;;;;;;5024908;28;20029;-78
2024/04/07 07:05:31;;;;;;;1.03;0.70;;;22.10;67.20;;;;;;5023866;28;20037;-79
2024/04/07 07:07:57;;;;;;;2.33;0.70;;;22.30;66.20;;;;;;5025168;28;20577;-79
2024/04/07 07:10:23;;;;;;;2.42;0.75;;;22.50;65.70;;;;;;5028082;28;20463;-79
2024/04/07 07:12:49;;;;;;;3.33;1.13;;;22.70;65.30;;;;;;5030799;28;20021;-80
2024/04/07 07:15:14;;;;;;;2.57;0.63;;;22.80;64.00;;;;;;5031710;28;20484;-79
2024/04/07 07:17:40;;;;;;;2.53;0.73;;;22.30;65.20;;;;;;5030158;28;20138;-80
2024/04/07 07:20:06;;;;;;;1.80;0.57;;;22.10;66.70;;;;;;5031165;28;20041;-80
2024/04/07 07:22:32;;;;;;;4.45;0.50;;;22.40;65.80;;;;;;5031336;28;20029;-79
2024/04/07 07:24:58;;;;;;;3.93;0.87;;;22.70;65.00;;;;;;5029788;28;20061;-79
2024/04/07 07:27:23;;;;;;;1.00;0.53;;;23.00;64.00;;;;;;5019219;28;20018;-80
2024/04/07 07:29:49;;;;;;;2.20;0.40;;;22.60;65.10;;;;;;5030211;28;20060;-79
2024/04/07 07:32:35;;;;;;;1.08;0.60;;;22.80;64.30;;;;;;5031350;28;20055;-80
2024/04/07 07:35:02;;;;;;;4.03;0.43;;;22.90;64.00;;;;;;5028489;28;20101;-79
2024/04/07 07:37:28;;;;;;;1.52;0.60;;;23.50;62.60;;;;;;5022671;28;20025;-80
2024/04/07 07:39:54;;;;;;;1.80;0.70;;;23.60;62.00;;;;;;5031233;28;20040;-79
2024/04/07 07:42:19;;;;;;;2.67;0.67;;;23.80;61.30;;;;;;5030981;28;20262;-80
2024/04/07 07:44:45;;;;;;;1.77;0.50;;;23.90;60.80;;;;;;5031293;28;20124;-80
2024/04/07 07:47:11;;;;;;;3.27;0.63;;;24.00;60.10;;;;;;5018926;28;20267;-80
2024/04/07 07:49:37;;;;;;;1.08;0.50;;;23.70;61.10;;;;;;5032667;28;20665;-79
2024/04/07 07:52:03;;;;;;;1.15;0.88;;;24.00;60.80;;;;;;5031229;28;20040;-80
2024/04/07 07:54:28;;;;;;;3.25;0.80;;;24.70;58.90;;;;;;5032269;28;20050;-80
2024/04/07 07:56:54;;;;;;;1.63;0.53;;;24.90;57.80;;;;;;5030398;28;20048;-80
2024/04/07 07:59:20;;;;;;;0.90;0.40;;;25.00;57.50;;;;;;5030952;28;20266;-80
2024/04/07 08:01:46;;;;;;;2.58;0.50;;;24.80;57.90;;;;;;5032232;28;20289;-80
2024/04/07 08:04:11;;;;;;;1.13;0.57;;;25.30;56.80;;;;;;5031025;28;20053;-80
2024/04/07 08:06:39;;;;;;;2.47;0.50;;;25.50;56.20;;;;;;5030556;28;20425;-80
2024/04/07 08:09:04;;;;;;;0.75;0.57;;;25.70;55.80;;;;;;5032649;28;20111;-80
2024/04/07 08:11:30;;;;;;;2.25;0.60;;;25.70;55.60;;;;;;5031408;28;20034;-80
2024/04/07 08:13:56;;;;;;;3.60;0.65;;;25.60;55.80;;;;;;5031505;28;20060;-80
2024/04/07 08:16:22;;;;;;;1.52;0.75;;;24.30;59.00;;;;;;5031108;28;20095;-80
2024/04/07 08:18:48;;;;;;;1.90;0.70;;;24.40;59.00;;;;;;5031660;28;20076;-80
2024/04/07 08:21:14;;;;;;;0.60;0.43;;;24.30;59.40;;;;;;5030261;28;20087;-79
2024/04/07 08:23:39;;;;;;;0.68;0.50;;;23.60;61.30;;;;;;5029849;28;20029;-79
2024/04/07 08:26:05;;;;;;;1.37;0.60;;;23.00;63.40;;;;;;5030850;28;20030;-79
2024/04/07 08:28:32;;;;;;;2.42;0.88;;;22.80;63.90;;;;;;5029422;28;20340;-80
2024/04/07 08:30:58;;;;;;;4.60;0.88;;;22.80;64.60;;;;;;5031107;28;20095;-80
2024/04/07 08:33:24;;;;;;;6.10;0.50;;;22.60;65.40;;;;;;5030952;28;20021;-81
2024/04/07 08:35:50;;;;;;;1.23;0.80;;;22.70;64.90;;;;;;5031002;28;20593;-80
2024/04/07 08:38:15;;;;;;;2.27;0.53;;;23.90;62.00;;;;;;5018898;28;20259;-81
2024/04/07 08:40:42;;;;;;;3.40;0.70;;;24.90;59.00;;;;;;5032145;28;20064;-84
2024/04/07 08:43:08;;;;;;;1.80;0.82;;;25.40;57.40;;;;;;5030638;28;20072;-80
2024/04/07 08:45:36;;;;;;;;;;;25.20;57.40;;;;;;5029078;28;20033;-77
2024/04/07 08:48:04;;;;;;;1.15;0.45;;;25.00;58.10;;;;;;5028713;28;20420;-78
2024/04/07 08:50:30;;;;;;;1.23;0.50;;;25.00;58.20;;;;;;5028434;28;20412;-78
2024/04/07 08:52:57;;;;;;;4.15;0.70;;;25.60;56.70;;;;;;5030367;28;20029;-78
2024/04/07 08:55:23;;;;;;;2.33;0.70;;;25.60;56.30;;;;;;5018631;28;20099;-78
2024/04/07 08:57:50;;;;;;;1.75;0.90;;;25.90;55.60;;;;;;5029825;28;20022;-79
2024/04/07 09:00:16;;;;;;;4.13;0.50;;;26.30;54.40;;;;;;5030031;28;20029;-78
2024/04/07 09:02:43;;;;;;;1.35;0.47;;;26.80;53.20;;;;;;5031409;28;20033;-79
2024/04/07 09:05:09;;;;;;;1.35;0.80;;;26.80;52.80;;;;;;5029986;28;20029;-78
2024/04/07 09:07:35;;;;;;;4.78;0.90;;;26.10;54.30;;;;;;5027105;28;20022;-79
2024/04/07 09:10:00;;;;;;;3.13;0.60;;;25.20;56.50;;;;;;5022989;28;20407;-79
2024/04/07 09:12:26;;;;;;;4.47;0.63;;;24.70;58.20;;;;;;5024941;28;20025;-78
2024/04/07 09:14:52;;;;;;;4.32;1.02;;;24.90;57.90;;;;;;5029963;28;20037;-78
2024/04/07 09:17:18;;;;;;;6.38;0.80;;;24.90;57.80;;;;;;5029571;28;20029;-79
2024/04/07 09:19:44;;;;;;;5.53;1.00;;;24.50;58.70;;;;;;5023734;28;20041;-78
2024/04/07 09:22:09;;;;;;;5.60;0.73;;;24.20;59.50;;;;;;5026579;28;20116;-79
2024/04/07 09:24:37;;;;;;;2.75;0.85;;;24.90;57.90;;;;;;5026285;28;20053;-78
2024/04/07 09:27:09;;;;;;;3.50;0.70;;;24.80;58.20;;;;;;5029392;28;20489;-79
2024/04/07 09:29:39;;;;;;;3.88;0.80;;;24.90;58.10;;;;;;5028491;28;20471;-79
2024/04/07 09:32:05;;;;;;;1.65;0.70;;;23.90;60.50;;;;;;5029624;28;20056;-79
2024/04/07 09:34:35;;;;;;;3.10;0.70;;;24.30;60.50;;;;;;5029215;28;20642;-79
2024/04/07 09:37:02;;;;;;;3.50;0.77;;;25.90;56.00;;;;;;5029345;28;20040;-78
2024/04/07 09:39:28;;;;;;;4.60;1.10;;;25.60;56.00;;;;;;5020966;28;20026;-79
2024/04/07 09:41:55;;;;;;;1.90;0.60;;;25.60;55.90;;;;;;5019675;28;20022;-78
2024/04/07 09:44:21;;;;;;;3.38;0.82;;;25.70;55.80;;;;;;5019060;28;20348;-79
2024/04/07 09:46:47;;;;;;;2.13;0.60;;;25.40;56.40;;;;;;5029137;28;20032;-79
2024/04/07 09:49:14;;;;;;;4.90;0.80;;;25.40;56.50;;;;;;5029366;28;20096;-79
2024/04/07 09:51:54;;;;;;;3.88;0.85;;;25.30;56.80;;;;;;5028685;28;20034;-79
2024/04/07 09:54:42;;;;;;;1.58;0.57;;;25.70;56.20;;;;;;5030379;28;20017;-79
2024/04/07 09:57:09;;;;;;;5.90;0.75;;;25.70;55.60;;;;;;5028819;28;20029;-79
2024/04/07 09:59:40;;;;;;;4.15;0.70;;;24.50;58.60;;;;;;5017894;28;20032;-79
2024/04/07 10:02:07;;;;;;;1.27;0.50;;;25.00;57.90;;;;;;5028231;28;20072;-78
2024/04/07 10:04:33;;;;;;;3.10;0.52;;;24.30;59.80;;;;;;5020921;28;20053;-78
2024/04/07 10:07:01;;;;;;;3.78;0.95;;;24.80;58.80;;;;;;5015158;28;20363;-79
2024/04/07 10:09:28;;;;;;;5.53;0.60;;;25.40;57.60;;;;;;5027444;28;20029;-78
2024/04/07 10:11:54;;;;;;;2.80;0.82;;;26.20;55.20;;;;;;5028272;28;20048;-79
2024/04/07 10:14:20;;;;;;;4.20;0.80;;;25.90;55.50;;;;;;5028763;28;20674;-79
2024/04/07 10:16:54;;;;;;;4.70;0.70;;;25.40;56.90;;;;;;5020726;28;20029;-80
2024/04/07 10:19:24;;;;;;;4.60;0.70;;;24.90;58.00;;;;;;5028520;28;20041;-79
2024/04/07 10:21:50;;;;;;;1.75;0.65;;;24.80;58.50;;;;;;5028417;28;20379;-78
2024/04/07 10:24:20;;;;;;;1.85;1.02;;;24.30;59.80;;;;;;5028756;28;20026;-79
2024/04/07 10:26:56;;;;;;;2.97;0.68;;;24.00;60.90;;;;;;5030200;28;20037;-78
2024/04/07 10:29:26;;;;;;;3.60;0.95;;;24.80;58.70;;;;;;5028598;28;20029;-78
2024/04/07 10:31:52;;;;;;;3.13;0.90;;;24.80;58.80;;;;;;5028158;28;20641;-78
2024/04/07 10:34:17;;;;;;;4.63;0.52;;;25.00;58.40;;;;;;5028512;28;20029;-78
2024/04/07 10:36:52;;;;;;;1.50;0.70;;;25.20;57.90;;;;;;5028600;28;20151;-78
2024/04/07 10:39:20;;;;;;;3.42;0.73;;;25.00;58.10;;;;;;5022068;28;20044;-78
2024/04/07 10:41:46;;;;;;;1.55;0.55;;;25.30;57.30;;;;;;5026982;28;20066;-78
2024/04/07 10:44:12;;;;;;;4.20;0.80;;;25.10;57.80;;;;;;5020340;28;20041;-78
2024/04/07 10:46:38;;;;;;;5.32;1.27;;;25.30;57.20;;;;;;5030773;28;20045;-78
2024/04/07 10:49:04;;;;;;;7.28;0.90;;;24.90;58.20;;;;;;5029113;28;20080;-80
2024/04/07 10:51:33;;;;;;;7.85;2.00;;;24.70;59.00;;;;;;5029578;28;20034;-79
2024/04/07 10:54:00;;;;;;;7.15;3.10;;;24.70;59.10;;;;;;5028826;28;20044;-80
2024/04/07 10:56:26;;;;;;;10.10;3.55;;;25.10;58.30;;;;;;5031090;28;20108;-79
2024/04/07 10:58:52;;;;;;;12.35;4.32;;;25.70;56.70;;;;;;5026904;28;20411;-80
2024/04/07 11:01:19;;;;;;;13.48;5.50;;;25.90;56.10;;;;;;5024336;28;20094;-79
2024/04/07 11:03:48;;;;;;;;;;;25.80;56.20;;;;;;5019145;28;20030;-80
2024/04/07 11:06:14;;;;;;;23.10;7.82;;;25.70;56.60;;;;;;5029490;28;19951;-80
2024/04/07 11:08:40;;;;;;;25.45;8.05;;;26.40;55.00;;;;;;5028279;28;20120;-80
2024/04/07 11:11:08;;;;;;;20.83;7.80;;;26.40;54.70;;;;;;5028401;28;20037;-78
2024/04/07 11:13:34;;;;;;;18.58;8.52;;;26.60;54.10;;;;;;5027283;28;20056;-79
2024/04/07 11:16:00;;;;;;;26.85;8.48;;;26.10;55.50;;;;;;5027706;28;20536;-79
2024/04/07 11:18:26;;;;;;;25.52;7.72;;;26.10;55.80;;;;;;5029537;28;20029;-80
2024/04/07 11:20:53;;;;;;;25.55;9.05;;;26.00;55.90;;;;;;5027796;28;20046;-79
2024/04/07 11:23:20;;;;;;;26.25;8.50;;;25.90;56.40;;;;;;5029327;28;20018;-79
2024/04/07 11:25:47;;;;;;;25.98;8.43;;;25.90;56.40;;;;;;5026533;28;20466;-79
2024/04/07 11:28:14;;;;;;;20.85;8.18;;;26.00;56.20;;;;;;5027640;28;20026;-79
2024/04/07 11:30:42;;;;;;;;;;;25.60;57.10;;;;;;5030044;28;20033;-80
2024/04/07 11:33:08;;;;;;;19.38;7.13;;;25.30;58.10;;;;;;5028959;28;19905;-79
2024/04/07 11:35:36;;;;;;;24.33;7.82;;;25.30;58.10;;;;;;5028029;28;20028;-79
2024/04/07 11:38:03;;;;;;;24.52;8.25;;;25.00;58.70;;;;;;5027215;28;20026;-81
2024/04/07 11:40:29;;;;;;;23.20;7.88;;;24.90;59.40;;;;;;5029405;28;20025;-78
2024/04/07 11:42:58;;;;;;;18.80;8.38;;;24.50;60.30;;;;;;5027605;28;20798;-77
2024/04/07 11:45:25;;;;;;;22.30;7.15;;;24.30;61.20;;;;;;5027427;28;20064;-76
2024/04/07 11:47:52;;;;;;;18.95;7.43;;;24.10;61.70;;;;;;5026866;28;20061;-77
2024/04/07 11:50:21;;;;;;;20.63;6.72;;;24.00;62.20;;;;;;5018798;28;20033;-77
2024/04/07 11:52:47;;;;;;;21.38;7.22;;;24.00;62.40;;;;;;5027410;28;20034;-77
2024/04/07 11:55:13;;;;;;;15.23;6.28;;;23.90;62.60;;;;;;5029591;28;20075;-77
2024/04/07 11:57:39;;;;;;;19.50;6.20;;;23.90;62.80;;;;;;5029682;28;20104;-77
2024/04/07 12:00:10;;;;;;;14.52;5.65;;;23.90;62.80;;;;;;5032325;28;20121;-76
2024/04/07 12:02:36;;;;;;;23.02;6.50;;;23.90;62.90;;;;;;5031189;28;20025;-77
2024/04/07 12:05:03;;;;;;;17.90;5.63;;;23.80;63.00;;;;;;5032106;28;20025;-76
2024/04/07 12:07:30;;;;;;;22.05;6.10;;;23.80;63.10;;;;;;5032290;28;20057;-78
2024/04/07 12:09:59;;;;;;;15.50;5.75;;;23.80;63.20;;;;;;5030842;28;20457;-76
2024/04/07 12:12:26;;;;;;;15.95;5.45;;;23.80;63.20;;;;;;5030601;28;20029;-77
2024/04/07 12:14:52;;;;;;;12.98;4.80;;;23.70;63.40;;;;;;5026491;28;20029;-77
2024/04/07 12:17:19;;;;;;;14.00;4.50;;;23.70;63.40;;;;;;5028425;28;20044;-76
2024/04/07 12:19:45;;;;;;;11.65;4.85;;;23.70;63.40;;;;;;5026109;28;20487;-75
2024/04/07 12:22:16;;;;;;;12.65;4.57;;;23.70;63.30;;;;;;5026805;28;20030;-75
2024/04/07 12:24:43;;;;;;;12.10;5.28;;;23.70;63.50;;;;;;5026622;28;20104;-76
2024/04/07 12:27:09;;;;;;;17.65;4.45;;;23.70;63.40;;;;;;5023881;28;20033;-76
2024/04/07 12:29:34;;;;;;;10.65;4.00;;;23.70;63.50;;;;;;5024095;28;20034;-76
2024/04/07 12:32:00;;;;;;;27.93;5.33;;;23.80;63.60;;;;;;5028596;28;20112;-77
2024/04/07 12:34:26;;;;;;;17.25;4.22;;;23.70;63.80;;;;;;5026930;28;20056;-78
2024/04/07 12:36:52;;;;;;;12.60;3.73;;;23.70;63.70;;;;;;5030242;28;20061;-78
2024/04/07 12:39:18;;;;;;;8.47;3.30;;;23.70;63.70;;;;;;5029874;28;20037;-78
2024/04/07 12:41:44;;;;;;;16.93;4.17;;;23.80;63.80;;;;;;5031344;28;20049;-78
2024/04/07 12:44:11;;;;;;;13.75;3.58;;;23.80;63.80;;;;;;5030520;28;20983;-78
2024/04/07 12:46:36;;;;;;;9.82;3.20;;;23.80;63.90;;;;;;5031823;28;20060;-78